sensor_id;sensor_type;location;lat;lon;timestamp;P1;durP1;ratioP1;P2;durP2;ratioP2
80270;SDS011;69573;45.560;10.200;2023-07-16T00:01:22;7.90;;;7.20;;
80270;SDS011;69573;45.560;10.200;2023-07-16T00:03:48;9.05;;;7.18;;
80270;SDS011;69573;45.560;10.200;2023-07-16T00:06:15;8.45;;;7.40;;
80270;SDS011;69573;45.560;10.200;2023-07-16T00:08:41;9.10;;;7.63;;
80270;SDS011;69573;45.560;10.200;2023-07-16T00:11:08;10.02;;;6.80;;
80270;SDS011;69573;45.560;10.200;2023-07-16T00:13:34;8.00;;;6.88;;
80270;SDS011;69573;45.560;10.200;2023-07-16T00:16:01;8.82;;;7.18;;
80270;SDS011;69573;45.560;10.200;2023-07-16T00:18:27;11.35;;;7.35;;
80270;SDS011;69573;45.560;10.200;2023-07-16T00:20:54;8.45;;;7.55;;
80270;SDS011;69573;45.560;10.200;2023-07-16T00:23:20;8.02;;;7.22;;
80270;SDS011;69573;45.560;10.200;2023-07-16T00:25:47;9.30;;;7.90;;
80270;SDS011;69573;45.560;10.200;2023-07-16T00:28:13;8.60;;;7.20;;
80270;SDS011;69573;45.560;10.200;2023-07-16T00:30:39;7.97;;;7.18;;
80270;SDS011;69573;45.560;10.200;2023-07-16T00:33:06;10.10;;;7.45;;
80270;SDS011;69573;45.560;10.200;2023-07-16T00:35:33;8.88;;;7.43;;
80270;SDS011;69573;45.560;10.200;2023-07-16T00:37:59;8.02;;;7.22;;
80270;SDS011;69573;45.560;10.200;2023-07-16T00:40:26;11.32;;;7.60;;
80270;SDS011;69573;45.560;10.200;2023-07-16T00:42:53;8.48;;;7.30;;
80270;SDS011;69573;45.560;10.200;2023-07-16T00:45:19;9.98;;;7.60;;
80270;SDS011;69573;45.560;10.200;2023-07-16T00:47:46;9.20;;;7.28;;
80270;SDS011;69573;45.560;10.200;2023-07-16T00:50:12;9.65;;;7.47;;
80270;SDS011;69573;45.560;10.200;2023-07-16T00:52:39;9.05;;;6.65;;
80270;SDS011;69573;45.560;10.200;2023-07-16T00:55:06;9.98;;;6.78;;
80270;SDS011;69573;45.560;10.200;2023-07-16T00:57:32;8.43;;;6.90;;
80270;SDS011;69573;45.560;10.200;2023-07-16T00:59:59;9.45;;;6.80;;
80270;SDS011;69573;45.560;10.200;2023-07-16T01:02:25;10.40;;;6.57;;
80270;SDS011;69573;45.560;10.200;2023-07-16T01:04:52;8.85;;;7.40;;
80270;SDS011;69573;45.560;10.200;2023-07-16T01:07:18;8.63;;;7.25;;
80270;SDS011;69573;45.560;10.200;2023-07-16T01:09:47;9.15;;;6.40;;
80270;SDS011;69573;45.560;10.200;2023-07-16T01:12:13;10.20;;;7.88;;
80270;SDS011;69573;45.560;10.200;2023-07-16T01:14:40;11.82;;;7.13;;
80270;SDS011;69573;45.560;10.200;2023-07-16T01:17:06;8.77;;;7.32;;
80270;SDS011;69573;45.560;10.200;2023-07-16T01:19:33;11.05;;;7.45;;
80270;SDS011;69573;45.560;10.200;2023-07-16T01:27:22;8.75;;;7.78;;
80270;SDS011;69573;45.560;10.200;2023-07-16T01:30:02;8.68;;;7.68;;
80270;SDS011;69573;45.560;10.200;2023-07-16T01:32:30;8.32;;;7.53;;
80270;SDS011;69573;45.560;10.200;2023-07-16T01:34:56;11.27;;;7.93;;
80270;SDS011;69573;45.560;10.200;2023-07-16T01:37:23;9.43;;;7.93;;
80270;SDS011;69573;45.560;10.200;2023-07-16T01:39:49;9.50;;;7.88;;
80270;SDS011;69573;45.560;10.200;2023-07-16T01:42:16;7.90;;;7.15;;
80270;SDS011;69573;45.560;10.200;2023-07-16T01:44:42;8.90;;;7.70;;
80270;SDS011;69573;45.560;10.200;2023-07-16T01:47:10;10.77;;;7.88;;
80270;SDS011;69573;45.560;10.200;2023-07-16T01:49:36;10.00;;;7.55;;
80270;SDS011;69573;45.560;10.200;2023-07-16T01:52:03;9.55;;;7.35;;
80270;SDS011;69573;45.560;10.200;2023-07-16T01:54:30;8.35;;;7.55;;
80270;SDS011;69573;45.560;10.200;2023-07-16T01:56:56;9.23;;;7.60;;
80270;SDS011;69573;45.560;10.200;2023-07-16T01:59:22;12.32;;;7.80;;
80270;SDS011;69573;45.560;10.200;2023-07-16T02:01:49;8.13;;;7.32;;
80270;SDS011;69573;45.560;10.200;2023-07-16T02:04:15;9.02;;;7.78;;
80270;SDS011;69573;45.560;10.200;2023-07-16T02:06:42;7.70;;;7.03;;
80270;SDS011;69573;45.560;10.200;2023-07-16T02:09:09;10.00;;;7.55;;
80270;SDS011;69573;45.560;10.200;2023-07-16T02:11:35;10.77;;;7.78;;
80270;SDS011;69573;45.560;10.200;2023-07-16T02:14:02;8.77;;;7.95;;
80270;SDS011;69573;45.560;10.200;2023-07-16T02:16:28;11.38;;;7.95;;
80270;SDS011;69573;45.560;10.200;2023-07-16T02:18:55;8.90;;;7.63;;
80270;SDS011;69573;45.560;10.200;2023-07-16T02:21:21;10.70;;;8.65;;
80270;SDS011;69573;45.560;10.200;2023-07-16T02:23:47;8.70;;;7.85;;
80270;SDS011;69573;45.560;10.200;2023-07-16T02:26:14;10.50;;;9.23;;
80270;SDS011;69573;45.560;10.200;2023-07-16T02:28:41;8.98;;;7.95;;
80270;SDS011;69573;45.560;10.200;2023-07-16T02:31:07;11.18;;;8.65;;
80270;SDS011;69573;45.560;10.200;2023-07-16T02:33:34;11.23;;;8.52;;
80270;SDS011;69573;45.560;10.200;2023-07-16T02:36:00;8.48;;;7.55;;
80270;SDS011;69573;45.560;10.200;2023-07-16T02:38:27;11.85;;;8.25;;
80270;SDS011;69573;45.560;10.200;2023-07-16T02:40:53;10.50;;;8.65;;
80270;SDS011;69573;45.560;10.200;2023-07-16T02:43:20;9.07;;;8.15;;
80270;SDS011;69573;45.560;10.200;2023-07-16T02:45:47;8.88;;;7.97;;
80270;SDS011;69573;45.560;10.200;2023-07-16T02:48:13;9.15;;;8.23;;
80270;SDS011;69573;45.560;10.200;2023-07-16T02:50:39;10.00;;;7.85;;
80270;SDS011;69573;45.560;10.200;2023-07-16T02:53:09;9.00;;;8.10;;
80270;SDS011;69573;45.560;10.200;2023-07-16T02:55:35;8.40;;;7.60;;
80270;SDS011;69573;45.560;10.200;2023-07-16T02:58:01;8.65;;;7.57;;
80270;SDS011;69573;45.560;10.200;2023-07-16T03:00:29;10.00;;;7.80;;
80270;SDS011;69573;45.560;10.200;2023-07-16T03:02:56;8.38;;;7.65;;
80270;SDS011;69573;45.560;10.200;2023-07-16T03:05:23;8.63;;;7.72;;
80270;SDS011;69573;45.560;10.200;2023-07-16T03:07:50;13.80;;;8.65;;
80270;SDS011;69573;45.560;10.200;2023-07-16T03:10:16;9.55;;;8.30;;
80270;SDS011;69573;45.560;10.200;2023-07-16T03:12:43;10.50;;;7.90;;
80270;SDS011;69573;45.560;10.200;2023-07-16T03:15:09;10.45;;;8.65;;
80270;SDS011;69573;45.560;10.200;2023-07-16T03:17:35;9.10;;;8.25;;
80270;SDS011;69573;45.560;10.200;2023-07-16T03:20:02;10.18;;;8.27;;
80270;SDS011;69573;45.560;10.200;2023-07-16T03:22:31;8.85;;;7.97;;
80270;SDS011;69573;45.560;10.200;2023-07-16T03:24:58;9.95;;;8.00;;
80270;SDS011;69573;45.560;10.200;2023-07-16T03:27:24;9.90;;;8.23;;
80270;SDS011;69573;45.560;10.200;2023-07-16T03:29:51;9.10;;;7.32;;
80270;SDS011;69573;45.560;10.200;2023-07-16T03:32:17;8.73;;;8.02;;
80270;SDS011;69573;45.560;10.200;2023-07-16T03:34:44;11.05;;;7.47;;
80270;SDS011;69573;45.560;10.200;2023-07-16T03:37:10;10.65;;;8.23;;
80270;SDS011;69573;45.560;10.200;2023-07-16T03:39:37;10.25;;;8.02;;
80270;SDS011;69573;45.560;10.200;2023-07-16T03:42:03;12.07;;;7.82;;
80270;SDS011;69573;45.560;10.200;2023-07-16T03:44:30;9.55;;;8.63;;
80270;SDS011;69573;45.560;10.200;2023-07-16T03:46:56;12.02;;;8.95;;
80270;SDS011;69573;45.560;10.200;2023-07-16T03:49:22;9.95;;;8.20;;
80270;SDS011;69573;45.560;10.200;2023-07-16T03:51:49;12.73;;;9.10;;
80270;SDS011;69573;45.560;10.200;2023-07-16T03:54:15;16.92;;;9.50;;
80270;SDS011;69573;45.560;10.200;2023-07-16T03:56:41;9.32;;;8.40;;
80270;SDS011;69573;45.560;10.200;2023-07-16T03:59:08;9.43;;;8.35;;
80270;SDS011;69573;45.560;10.200;2023-07-16T04:01:37;9.48;;;8.68;;
80270;SDS011;69573;45.560;10.200;2023-07-16T04:04:04;10.85;;;9.35;;
80270;SDS011;69573;45.560;10.200;2023-07-16T04:06:30;10.15;;;8.10;;
80270;SDS011;69573;45.560;10.200;2023-07-16T04:08:57;8.88;;;8.10;;
80270;SDS011;69573;45.560;10.200;2023-07-16T04:11:26;8.90;;;8.10;;
80270;SDS011;69573;45.560;10.200;2023-07-16T04:13:52;10.30;;;7.88;;
80270;SDS011;69573;45.560;10.200;2023-07-16T04:16:19;9.57;;;8.20;;
80270;SDS011;69573;45.560;10.200;2023-07-16T04:18:45;10.52;;;8.45;;
80270;SDS011;69573;45.560;10.200;2023-07-16T04:21:12;9.55;;;7.47;;
80270;SDS011;69573;45.560;10.200;2023-07-16T04:23:39;8.90;;;7.60;;
80270;SDS011;69573;45.560;10.200;2023-07-16T04:26:05;10.98;;;8.35;;
80270;SDS011;69573;45.560;10.200;2023-07-16T04:28:32;10.60;;;8.70;;
80270;SDS011;69573;45.560;10.200;2023-07-16T04:30:59;9.25;;;8.32;;
80270;SDS011;69573;45.560;10.200;2023-07-16T04:33:26;13.05;;;8.45;;
80270;SDS011;69573;45.560;10.200;2023-07-16T04:35:52;9.20;;;8.00;;
80270;SDS011;69573;45.560;10.200;2023-07-16T04:38:19;8.80;;;7.95;;
80270;SDS011;69573;45.560;10.200;2023-07-16T04:40:45;8.02;;;7.28;;
80270;SDS011;69573;45.560;10.200;2023-07-16T04:45:43;10.07;;;8.15;;
80270;SDS011;69573;45.560;10.200;2023-07-16T04:48:11;10.48;;;8.32;;
80270;SDS011;69573;45.560;10.200;2023-07-16T04:50:38;10.07;;;7.85;;
80270;SDS011;69573;45.560;10.200;2023-07-16T04:53:04;10.90;;;8.23;;
80270;SDS011;69573;45.560;10.200;2023-07-16T04:55:40;8.48;;;7.68;;
80270;SDS011;69573;45.560;10.200;2023-07-16T04:58:06;12.00;;;8.07;;
80270;SDS011;69573;45.560;10.200;2023-07-16T05:00:36;9.50;;;7.53;;
80270;SDS011;69573;45.560;10.200;2023-07-16T05:03:03;8.80;;;7.85;;
80270;SDS011;69573;45.560;10.200;2023-07-16T05:05:29;8.27;;;7.55;;
80270;SDS011;69573;45.560;10.200;2023-07-16T05:07:56;8.15;;;7.45;;
80270;SDS011;69573;45.560;10.200;2023-07-16T05:10:22;9.35;;;7.47;;
80270;SDS011;69573;45.560;10.200;2023-07-16T05:12:49;11.80;;;7.68;;
80270;SDS011;69573;45.560;10.200;2023-07-16T05:15:15;10.05;;;7.85;;
80270;SDS011;69573;45.560;10.200;2023-07-16T05:17:42;10.30;;;7.65;;
80270;SDS011;69573;45.560;10.200;2023-07-16T05:20:08;8.48;;;7.63;;
80270;SDS011;69573;45.560;10.200;2023-07-16T05:22:35;8.02;;;7.28;;
80270;SDS011;69573;45.560;10.200;2023-07-16T05:25:01;10.93;;;7.93;;
80270;SDS011;69573;45.560;10.200;2023-07-16T05:27:27;10.07;;;7.25;;
80270;SDS011;69573;45.560;10.200;2023-07-16T05:29:54;8.38;;;7.60;;
80270;SDS011;69573;45.560;10.200;2023-07-16T05:32:21;11.05;;;7.55;;
80270;SDS011;69573;45.560;10.200;2023-07-16T05:34:48;9.57;;;8.20;;
80270;SDS011;69573;45.560;10.200;2023-07-16T05:37:14;10.90;;;7.30;;
80270;SDS011;69573;45.560;10.200;2023-07-16T05:39:40;9.32;;;8.13;;
80270;SDS011;69573;45.560;10.200;2023-07-16T05:42:06;9.55;;;7.60;;
80270;SDS011;69573;45.560;10.200;2023-07-16T05:44:33;9.07;;;7.07;;
80270;SDS011;69573;45.560;10.200;2023-07-16T05:46:59;11.90;;;7.75;;
80270;SDS011;69573;45.560;10.200;2023-07-16T05:49:26;9.07;;;7.15;;
80270;SDS011;69573;45.560;10.200;2023-07-16T05:51:52;11.20;;;7.45;;
80270;SDS011;69573;45.560;10.200;2023-07-16T05:54:19;10.02;;;7.00;;
80270;SDS011;69573;45.560;10.200;2023-07-16T05:56:46;7.15;;;6.50;;
80270;SDS011;69573;45.560;10.200;2023-07-16T05:59:13;8.80;;;7.10;;
80270;SDS011;69573;45.560;10.200;2023-07-16T06:01:39;8.30;;;7.10;;
80270;SDS011;69573;45.560;10.200;2023-07-16T06:04:06;8.50;;;7.35;;
80270;SDS011;69573;45.560;10.200;2023-07-16T06:06:32;7.80;;;7.07;;
80270;SDS011;69573;45.560;10.200;2023-07-16T06:08:58;7.95;;;6.97;;
80270;SDS011;69573;45.560;10.200;2023-07-16T06:11:25;8.52;;;7.00;;
80270;SDS011;69573;45.560;10.200;2023-07-16T06:13:54;8.27;;;7.22;;
80270;SDS011;69573;45.560;10.200;2023-07-16T06:18:47;9.13;;;7.00;;
80270;SDS011;69573;45.560;10.200;2023-07-16T06:21:13;10.43;;;7.47;;
80270;SDS011;69573;45.560;10.200;2023-07-16T06:23:40;9.02;;;7.68;;
80270;SDS011;69573;45.560;10.200;2023-07-16T06:26:06;9.48;;;7.60;;
80270;SDS011;69573;45.560;10.200;2023-07-16T06:28:33;8.70;;;7.80;;
80270;SDS011;69573;45.560;10.200;2023-07-16T06:30:59;10.40;;;7.97;;
80270;SDS011;69573;45.560;10.200;2023-07-16T06:33:25;11.30;;;7.63;;
80270;SDS011;69573;45.560;10.200;2023-07-16T06:35:53;8.13;;;7.35;;
80270;SDS011;69573;45.560;10.200;2023-07-16T06:38:19;8.65;;;6.53;;
80270;SDS011;69573;45.560;10.200;2023-07-16T06:40:46;7.15;;;6.55;;
80270;SDS011;69573;45.560;10.200;2023-07-16T06:43:13;11.80;;;7.63;;
80270;SDS011;69573;45.560;10.200;2023-07-16T06:45:40;7.85;;;7.00;;
80270;SDS011;69573;45.560;10.200;2023-07-16T06:48:06;8.70;;;7.10;;
80270;SDS011;69573;45.560;10.200;2023-07-16T06:50:32;8.00;;;6.63;;
80270;SDS011;69573;45.560;10.200;2023-07-16T06:52:58;7.60;;;6.88;;
80270;SDS011;69573;45.560;10.200;2023-07-16T06:55:25;9.27;;;7.22;;
80270;SDS011;69573;45.560;10.200;2023-07-16T06:57:51;7.80;;;7.05;;
80270;SDS011;69573;45.560;10.200;2023-07-16T07:00:18;9.55;;;7.32;;
80270;SDS011;69573;45.560;10.200;2023-07-16T07:02:44;8.25;;;7.07;;
80270;SDS011;69573;45.560;10.200;2023-07-16T07:05:10;8.75;;;7.57;;
80270;SDS011;69573;45.560;10.200;2023-07-16T07:07:37;9.07;;;7.18;;
80270;SDS011;69573;45.560;10.200;2023-07-16T07:10:03;7.75;;;7.00;;
80270;SDS011;69573;45.560;10.200;2023-07-16T07:12:30;9.70;;;6.97;;
80270;SDS011;69573;45.560;10.200;2023-07-16T07:15:04;8.18;;;6.82;;
80270;SDS011;69573;45.560;10.200;2023-07-16T07:17:30;9.63;;;7.35;;
80270;SDS011;69573;45.560;10.200;2023-07-16T07:19:57;9.02;;;7.18;;
80270;SDS011;69573;45.560;10.200;2023-07-16T07:22:24;10.38;;;6.65;;
80270;SDS011;69573;45.560;10.200;2023-07-16T07:24:50;12.73;;;6.90;;
80270;SDS011;69573;45.560;10.200;2023-07-16T07:27:16;8.63;;;6.93;;
80270;SDS011;69573;45.560;10.200;2023-07-16T07:29:43;9.02;;;7.45;;
80270;SDS011;69573;45.560;10.200;2023-07-16T07:32:12;10.20;;;7.65;;
80270;SDS011;69573;45.560;10.200;2023-07-16T07:34:38;7.72;;;6.93;;
80270;SDS011;69573;45.560;10.200;2023-07-16T07:37:05;11.73;;;6.97;;
80270;SDS011;69573;45.560;10.200;2023-07-16T07:39:31;9.23;;;7.43;;
80270;SDS011;69573;45.560;10.200;2023-07-16T07:41:57;10.35;;;7.10;;
80270;SDS011;69573;45.560;10.200;2023-07-16T07:44:23;11.93;;;7.88;;
80270;SDS011;69573;45.560;10.200;2023-07-16T07:46:50;12.82;;;8.02;;
80270;SDS011;69573;45.560;10.200;2023-07-16T07:49:16;8.50;;;7.63;;
80270;SDS011;69573;45.560;10.200;2023-07-16T07:51:43;13.00;;;6.97;;
80270;SDS011;69573;45.560;10.200;2023-07-16T07:54:09;9.30;;;6.80;;
80270;SDS011;69573;45.560;10.200;2023-07-16T07:56:35;12.48;;;6.75;;
80270;SDS011;69573;45.560;10.200;2023-07-16T07:59:02;12.77;;;6.68;;
80270;SDS011;69573;45.560;10.200;2023-07-16T08:01:28;13.48;;;8.05;;
80270;SDS011;69573;45.560;10.200;2023-07-16T08:03:55;12.68;;;6.90;;
80270;SDS011;69573;45.560;10.200;2023-07-16T08:06:24;10.82;;;6.93;;
80270;SDS011;69573;45.560;10.200;2023-07-16T08:08:51;15.52;;;6.80;;
80270;SDS011;69573;45.560;10.200;2023-07-16T08:11:17;11.20;;;7.30;;
80270;SDS011;69573;45.560;10.200;2023-07-16T08:13:44;10.10;;;7.10;;
80270;SDS011;69573;45.560;10.200;2023-07-16T08:16:10;10.65;;;7.22;;
80270;SDS011;69573;45.560;10.200;2023-07-16T08:18:37;10.18;;;7.85;;
80270;SDS011;69573;45.560;10.200;2023-07-16T08:21:03;11.27;;;7.70;;
80270;SDS011;69573;45.560;10.200;2023-07-16T08:23:30;13.15;;;8.18;;
80270;SDS011;69573;45.560;10.200;2023-07-16T08:25:57;10.75;;;7.50;;
80270;SDS011;69573;45.560;10.200;2023-07-16T08:28:23;9.85;;;6.88;;
80270;SDS011;69573;45.560;10.200;2023-07-16T08:30:50;13.27;;;7.80;;
80270;SDS011;69573;45.560;10.200;2023-07-16T08:33:17;13.88;;;8.05;;
80270;SDS011;69573;45.560;10.200;2023-07-16T08:35:43;8.38;;;7.10;;
80270;SDS011;69573;45.560;10.200;2023-07-16T08:38:09;10.90;;;7.32;;
80270;SDS011;69573;45.560;10.200;2023-07-16T08:40:38;10.57;;;7.40;;
80270;SDS011;69573;45.560;10.200;2023-07-16T08:45:31;11.77;;;7.30;;
80270;SDS011;69573;45.560;10.200;2023-07-16T08:47:57;8.18;;;7.38;;
80270;SDS011;69573;45.560;10.200;2023-07-16T08:50:24;8.38;;;7.47;;
80270;SDS011;69573;45.560;10.200;2023-07-16T08:52:51;10.68;;;7.63;;
80270;SDS011;69573;45.560;10.200;2023-07-16T08:55:19;8.75;;;7.85;;
80270;SDS011;69573;45.560;10.200;2023-07-16T08:57:46;11.63;;;7.22;;
80270;SDS011;69573;45.560;10.200;2023-07-16T09:00:13;12.13;;;8.23;;
80270;SDS011;69573;45.560;10.200;2023-07-16T09:02:40;10.77;;;7.05;;
80270;SDS011;69573;45.560;10.200;2023-07-16T09:05:07;11.52;;;7.50;;
80270;SDS011;69573;45.560;10.200;2023-07-16T09:07:35;10.73;;;7.47;;
80270;SDS011;69573;45.560;10.200;2023-07-16T09:10:02;12.85;;;7.75;;
80270;SDS011;69573;45.560;10.200;2023-07-16T09:12:29;12.38;;;7.28;;
80270;SDS011;69573;45.560;10.200;2023-07-16T09:14:55;12.20;;;7.57;;
80270;SDS011;69573;45.560;10.200;2023-07-16T09:17:22;10.75;;;6.88;;
80270;SDS011;69573;45.560;10.200;2023-07-16T09:19:49;8.43;;;7.03;;
80270;SDS011;69573;45.560;10.200;2023-07-16T09:22:16;11.10;;;6.97;;
80270;SDS011;69573;45.560;10.200;2023-07-16T09:24:46;8.77;;;7.40;;
80270;SDS011;69573;45.560;10.200;2023-07-16T09:29:38;11.60;;;6.55;;
80270;SDS011;69573;45.560;10.200;2023-07-16T09:32:05;8.90;;;6.13;;
80270;SDS011;69573;45.560;10.200;2023-07-16T09:34:31;10.10;;;6.40;;
80270;SDS011;69573;45.560;10.200;2023-07-16T09:36:58;13.25;;;6.57;;
80270;SDS011;69573;45.560;10.200;2023-07-16T09:39:25;9.50;;;6.18;;
80270;SDS011;69573;45.560;10.200;2023-07-16T09:41:52;11.10;;;6.20;;
80270;SDS011;69573;45.560;10.200;2023-07-16T09:44:19;9.07;;;6.13;;
80270;SDS011;69573;45.560;10.200;2023-07-16T09:46:45;6.90;;;5.68;;
80270;SDS011;69573;45.560;10.200;2023-07-16T09:49:14;10.18;;;5.40;;
80270;SDS011;69573;45.560;10.200;2023-07-16T09:51:40;9.25;;;5.68;;
80270;SDS011;69573;45.560;10.200;2023-07-16T09:54:08;6.63;;;5.43;;
80270;SDS011;69573;45.560;10.200;2023-07-16T09:56:36;8.23;;;5.82;;
80270;SDS011;69573;45.560;10.200;2023-07-16T09:59:02;9.98;;;5.65;;
80270;SDS011;69573;45.560;10.200;2023-07-16T10:03:58;6.03;;;4.93;;
80270;SDS011;69573;45.560;10.200;2023-07-16T10:06:24;7.80;;;5.22;;
80270;SDS011;69573;45.560;10.200;2023-07-16T10:08:51;7.00;;;4.70;;
80270;SDS011;69573;45.560;10.200;2023-07-16T10:11:18;7.85;;;5.32;;
80270;SDS011;69573;45.560;10.200;2023-07-16T10:13:50;6.80;;;5.50;;
80270;SDS011;69573;45.560;10.200;2023-07-16T10:16:20;6.97;;;4.38;;
80270;SDS011;69573;45.560;10.200;2023-07-16T10:18:51;5.10;;;4.13;;
80270;SDS011;69573;45.560;10.200;2023-07-16T10:21:23;4.20;;;3.55;;
80270;SDS011;69573;45.560;10.200;2023-07-16T10:23:59;4.63;;;4.00;;
80270;SDS011;69573;45.560;10.200;2023-07-16T10:26:28;5.00;;;3.65;;
80270;SDS011;69573;45.560;10.200;2023-07-16T10:28:55;10.85;;;5.50;;
80270;SDS011;69573;45.560;10.200;2023-07-16T10:31:25;7.65;;;5.50;;
80270;SDS011;69573;45.560;10.200;2023-07-16T10:33:58;7.85;;;5.82;;
80270;SDS011;69573;45.560;10.200;2023-07-16T10:36:25;6.75;;;5.15;;
80270;SDS011;69573;45.560;10.200;2023-07-16T10:38:51;7.78;;;4.40;;
80270;SDS011;69573;45.560;10.200;2023-07-16T10:41:17;5.68;;;4.28;;
80270;SDS011;69573;45.560;10.200;2023-07-16T10:43:44;6.03;;;4.28;;
80270;SDS011;69573;45.560;10.200;2023-07-16T10:46:11;8.75;;;4.18;;
80270;SDS011;69573;45.560;10.200;2023-07-16T10:48:37;6.68;;;4.80;;
80270;SDS011;69573;45.560;10.200;2023-07-16T10:51:04;9.20;;;4.85;;
80270;SDS011;69573;45.560;10.200;2023-07-16T10:53:30;8.25;;;4.95;;
80270;SDS011;69573;45.560;10.200;2023-07-16T10:55:58;6.32;;;5.00;;
80270;SDS011;69573;45.560;10.200;2023-07-16T10:58:26;9.05;;;4.78;;
80270;SDS011;69573;45.560;10.200;2023-07-16T11:00:53;6.45;;;4.50;;
80270;SDS011;69573;45.560;10.200;2023-07-16T11:03:20;7.20;;;4.75;;
80270;SDS011;69573;45.560;10.200;2023-07-16T11:05:46;8.00;;;5.13;;
80270;SDS011;69573;45.560;10.200;2023-07-16T11:08:21;8.55;;;5.03;;
80270;SDS011;69573;45.560;10.200;2023-07-16T11:10:52;9.30;;;5.35;;
80270;SDS011;69573;45.560;10.200;2023-07-16T11:13:18;6.03;;;5.43;;
80270;SDS011;69573;45.560;10.200;2023-07-16T11:15:45;7.00;;;5.28;;
80270;SDS011;69573;45.560;10.200;2023-07-16T11:18:12;10.82;;;5.65;;
80270;SDS011;69573;45.560;10.200;2023-07-16T11:20:38;7.45;;;5.47;;
80270;SDS011;69573;45.560;10.200;2023-07-16T11:23:05;13.35;;;5.78;;
80270;SDS011;69573;45.560;10.200;2023-07-16T11:25:31;8.32;;;6.00;;
80270;SDS011;69573;45.560;10.200;2023-07-16T11:27:58;8.65;;;6.15;;
80270;SDS011;69573;45.560;10.200;2023-07-16T11:30:25;12.23;;;5.47;;
80270;SDS011;69573;45.560;10.200;2023-07-16T11:32:53;9.52;;;5.72;;
80270;SDS011;69573;45.560;10.200;2023-07-16T11:35:25;9.45;;;5.85;;
80270;SDS011;69573;45.560;10.200;2023-07-16T11:37:51;8.82;;;5.43;;
80270;SDS011;69573;45.560;10.200;2023-07-16T11:40:18;11.10;;;5.07;;
80270;SDS011;69573;45.560;10.200;2023-07-16T11:42:44;8.18;;;4.78;;
80270;SDS011;69573;45.560;10.200;2023-07-16T11:45:21;5.47;;;4.32;;
80270;SDS011;69573;45.560;10.200;2023-07-16T11:47:53;7.63;;;3.90;;
80270;SDS011;69573;45.560;10.200;2023-07-16T11:50:23;8.15;;;4.57;;
80270;SDS011;69573;45.560;10.200;2023-07-16T11:52:53;7.85;;;3.85;;
80270;SDS011;69573;45.560;10.200;2023-07-16T11:55:19;10.15;;;5.80;;
80270;SDS011;69573;45.560;10.200;2023-07-16T11:57:45;7.10;;;4.28;;
80270;SDS011;69573;45.560;10.200;2023-07-16T12:00:12;9.30;;;5.03;;
80270;SDS011;69573;45.560;10.200;2023-07-16T12:02:38;12.07;;;4.75;;
80270;SDS011;69573;45.560;10.200;2023-07-16T12:05:05;6.60;;;4.63;;
80270;SDS011;69573;45.560;10.200;2023-07-16T12:07:33;9.93;;;5.50;;
80270;SDS011;69573;45.560;10.200;2023-07-16T12:10:00;6.72;;;4.30;;
80270;SDS011;69573;45.560;10.200;2023-07-16T12:12:26;6.50;;;4.28;;
80270;SDS011;69573;45.560;10.200;2023-07-16T12:14:53;6.47;;;4.43;;
80270;SDS011;69573;45.560;10.200;2023-07-16T12:17:19;7.10;;;4.80;;
80270;SDS011;69573;45.560;10.200;2023-07-16T12:19:45;7.90;;;4.65;;
80270;SDS011;69573;45.560;10.200;2023-07-16T12:22:12;8.68;;;4.78;;
80270;SDS011;69573;45.560;10.200;2023-07-16T12:24:39;8.88;;;4.70;;
80270;SDS011;69573;45.560;10.200;2023-07-16T12:27:06;5.60;;;4.53;;
80270;SDS011;69573;45.560;10.200;2023-07-16T12:29:33;7.85;;;4.38;;
80270;SDS011;69573;45.560;10.200;2023-07-16T12:31:59;7.40;;;4.57;;
80270;SDS011;69573;45.560;10.200;2023-07-16T12:34:26;7.70;;;4.38;;
80270;SDS011;69573;45.560;10.200;2023-07-16T12:36:52;6.75;;;4.80;;
80270;SDS011;69573;45.560;10.200;2023-07-16T12:39:20;7.88;;;4.40;;
80270;SDS011;69573;45.560;10.200;2023-07-16T12:41:46;8.90;;;4.40;;
80270;SDS011;69573;45.560;10.200;2023-07-16T12:44:13;7.70;;;4.60;;
80270;SDS011;69573;45.560;10.200;2023-07-16T12:46:39;6.45;;;4.47;;
80270;SDS011;69573;45.560;10.200;2023-07-16T12:49:05;5.93;;;4.70;;
80270;SDS011;69573;45.560;10.200;2023-07-16T12:51:31;6.18;;;4.30;;
80270;SDS011;69573;45.560;10.200;2023-07-16T12:53:58;6.40;;;4.30;;
80270;SDS011;69573;45.560;10.200;2023-07-16T12:56:26;7.18;;;3.92;;
80270;SDS011;69573;45.560;10.200;2023-07-16T12:58:52;9.50;;;3.85;;
80270;SDS011;69573;45.560;10.200;2023-07-16T13:01:19;9.20;;;4.75;;
80270;SDS011;69573;45.560;10.200;2023-07-16T13:03:46;8.07;;;4.75;;
80270;SDS011;69573;45.560;10.200;2023-07-16T13:06:13;9.20;;;4.78;;
80270;SDS011;69573;45.560;10.200;2023-07-16T13:08:39;4.95;;;4.45;;
80270;SDS011;69573;45.560;10.200;2023-07-16T13:11:06;7.78;;;4.97;;
80270;SDS011;69573;45.560;10.200;2023-07-16T13:13:32;8.10;;;4.70;;
80270;SDS011;69573;45.560;10.200;2023-07-16T13:15:59;9.93;;;4.68;;
80270;SDS011;69573;45.560;10.200;2023-07-16T13:18:25;12.65;;;4.95;;
80270;SDS011;69573;45.560;10.200;2023-07-16T13:20:55;11.13;;;5.28;;
80270;SDS011;69573;45.560;10.200;2023-07-16T13:23:21;5.95;;;5.40;;
80270;SDS011;69573;45.560;10.200;2023-07-16T13:25:48;9.02;;;5.13;;
80270;SDS011;69573;45.560;10.200;2023-07-16T13:30:43;8.10;;;4.85;;
80270;SDS011;69573;45.560;10.200;2023-07-16T13:33:09;7.78;;;4.53;;
80270;SDS011;69573;45.560;10.200;2023-07-16T13:35:36;10.30;;;4.93;;
80270;SDS011;69573;45.560;10.200;2023-07-16T13:38:02;6.95;;;4.82;;
80270;SDS011;69573;45.560;10.200;2023-07-16T13:40:29;9.15;;;4.70;;
80270;SDS011;69573;45.560;10.200;2023-07-16T13:42:55;5.82;;;4.35;;
80270;SDS011;69573;45.560;10.200;2023-07-16T13:45:22;6.18;;;4.63;;
80270;SDS011;69573;45.560;10.200;2023-07-16T13:47:48;10.30;;;4.72;;
80270;SDS011;69573;45.560;10.200;2023-07-16T13:50:18;6.75;;;4.85;;
80270;SDS011;69573;45.560;10.200;2023-07-16T13:52:44;8.13;;;4.75;;
80270;SDS011;69573;45.560;10.200;2023-07-16T13:55:10;5.97;;;4.90;;
80270;SDS011;69573;45.560;10.200;2023-07-16T13:57:37;9.70;;;4.80;;
80270;SDS011;69573;45.560;10.200;2023-07-16T14:00:03;6.07;;;4.30;;
80270;SDS011;69573;45.560;10.200;2023-07-16T14:02:30;9.50;;;4.40;;
80270;SDS011;69573;45.560;10.200;2023-07-16T14:04:56;7.85;;;4.88;;
80270;SDS011;69573;45.560;10.200;2023-07-16T14:07:22;6.82;;;4.45;;
80270;SDS011;69573;45.560;10.200;2023-07-16T14:09:49;4.65;;;4.13;;
80270;SDS011;69573;45.560;10.200;2023-07-16T14:12:15;6.13;;;3.63;;
80270;SDS011;69573;45.560;10.200;2023-07-16T14:14:42;5.70;;;3.28;;
80270;SDS011;69573;45.560;10.200;2023-07-16T14:17:08;7.63;;;4.50;;
80270;SDS011;69573;45.560;10.200;2023-07-16T14:19:36;9.48;;;4.00;;
80270;SDS011;69573;45.560;10.200;2023-07-16T14:22:02;5.90;;;4.30;;
80270;SDS011;69573;45.560;10.200;2023-07-16T14:24:29;7.70;;;4.38;;
80270;SDS011;69573;45.560;10.200;2023-07-16T14:26:57;6.03;;;4.25;;
80270;SDS011;69573;45.560;10.200;2023-07-16T14:29:27;5.47;;;3.83;;
80270;SDS011;69573;45.560;10.200;2023-07-16T14:31:55;6.55;;;3.72;;
80270;SDS011;69573;45.560;10.200;2023-07-16T14:34:21;8.20;;;4.70;;
80270;SDS011;69573;45.560;10.200;2023-07-16T14:36:48;4.80;;;4.30;;
80270;SDS011;69573;45.560;10.200;2023-07-16T14:39:14;7.88;;;4.00;;
80270;SDS011;69573;45.560;10.200;2023-07-16T14:41:40;8.57;;;4.63;;
80270;SDS011;69573;45.560;10.200;2023-07-16T14:44:07;5.78;;;4.80;;
80270;SDS011;69573;45.560;10.200;2023-07-16T14:46:36;7.45;;;4.20;;
80270;SDS011;69573;45.560;10.200;2023-07-16T14:49:03;8.95;;;4.18;;